KLEX/LEX METAR and TAF weather

Enter ICAO airport designator
Station Type Date Time Source
KLEX METAR 2020/07/05 02:54 UTC NOAA

KLEX 050254Z 33003KT 10SM CLR 24/18 A2998 RMK AO2 SLP140 T02390183 53012


Station Type Date Time Source
KLEX Decoded METAR 2020/07/05 02:54 UTC NOAA

LEXINGTON BLUE GRASS AIRPORT, KY, United States (KLEX) 38-02N 084-36W 300M
Jul 04, 2020 - 10:54 PM EDT / 2020.07.05 0254 UTC
Wind: from the NNW (330 degrees) at 3 MPH (3 KT):0
Visibility: 10 mile(s):0
Sky conditions: clear
Temperature: 75.0 F (23.9 C)
Dew Point: 64.9 F (18.3 C)
Relative Humidity: 70%
Pressure (altimeter): 29.98 in. Hg (1015 hPa)
Pressure tendency: 0.04 inches (1.2 hPa) higher than three hours ago
ob: KLEX 050254Z 33003KT 10SM CLR 24/18 A2998 RMK AO2 SLP140 T02390183 53012
cycle: 3

Station Type Date Time Source
KLEX TAF 2020/07/04 18:22 UTC NOAA

TAF KLEX 041720Z 0418/0518 VRB03KT P6SM SCT250

Example: see airport list